Terminal Aerodrome Forecast
Issued by NWS Mt. Holly, NJ

Home | Current Version | Previous Version | Text Only | Print | Product List | Glossary On
Versions: 1 2 3 4 5 6 7 8 9 10 11 12 13 14 15 16 17
000
FTUS41 KPHI 251720
TAFILG
TAF
KILG 251720Z 2518/2618 17012G20KT P6SM SCT025 BKN050
     FM252100 21012KT 6SM -TSRA BR OVC025CB
      TEMPO 2521/2523 VRB20G35KT 2SM +TSRA OVC020CB
     FM252300 30015G25KT P6SM VCSH OVC060
     FM260100 30015G25KT P6SM SCT060=

USA.gov is the U.S. government's official web portal to all federal, state and local government web resources and services.